AUA6PS LKPR-LOWW
Flight info
| Callsign | AUA6PS |
|---|---|
| Flight time | N/A |
| Altitude | 17000 |
| Route | VOZ DCT LANUX LANUX7W |
| Aircraft | E195/M-SDE3GILORVW/S |
Departure
| Time | 2026-05-06 07:23 |
|---|---|
| Airport | Václav Havel Airport Prague (LKPR) |
Arrival
| Time | N/A |
|---|---|
| Airport | Vienna International Airport (LOWW) |
| Time | Latitude | Longitude | Altitude | Speed | Heading |
|---|---|---|---|---|---|
| 2026-05-06 07:01 | 50.10624 | 14.26198 | 1174 ft | 0 kts | 35° |
| 2026-05-06 07:12 | 50.10624 | 14.26199 | 1174 ft | 0 kts | 35° |
| 2026-05-06 07:12 | 50.10621 | 14.26196 | 1174 ft | 2 kts | 34° |
| 2026-05-06 07:12 | 50.10609 | 14.26182 | 1174 ft | 2 kts | 34° |
| 2026-05-06 07:12 | 50.10601 | 14.26173 | 1175 ft | 0 kts | 34° |
| 2026-05-06 07:13 | 50.10588 | 14.26163 | 1175 ft | 2 kts | 13° |
| 2026-05-06 07:13 | 50.10573 | 14.26162 | 1176 ft | 2 kts | 351° |
| 2026-05-06 07:13 | 50.10559 | 14.26169 | 1176 ft | 2 kts | 329° |
| 2026-05-06 07:13 | 50.10548 | 14.26183 | 1177 ft | 2 kts | 308° |
| 2026-05-06 07:14 | 50.10541 | 14.26201 | 1178 ft | 1 kts | 290° |
| 2026-05-06 07:14 | 50.10541 | 14.26203 | 1178 ft | 0 kts | 289° |
| 2026-05-06 07:16 | 50.10545 | 14.26187 | 1177 ft | 3 kts | 295° |
| 2026-05-06 07:17 | 50.10565 | 14.26135 | 1176 ft | 6 kts | 303° |
| 2026-05-06 07:17 | 50.10605 | 14.26075 | 1174 ft | 9 kts | 340° |
| 2026-05-06 07:17 | 50.10675 | 14.26117 | 1172 ft | 12 kts | 35° |
| 2026-05-06 07:17 | 50.10759 | 14.26204 | 1169 ft | 15 kts | 33° |
| 2026-05-06 07:18 | 50.10856 | 14.26307 | 1168 ft | 17 kts | 34° |
| 2026-05-06 07:18 | 50.10940 | 14.26397 | 1167 ft | 13 kts | 36° |
| 2026-05-06 07:18 | 50.10992 | 14.26453 | 1167 ft | 13 kts | 33° |
| 2026-05-06 07:18 | 50.11106 | 14.26575 | 1166 ft | 16 kts | 36° |
| 2026-05-06 07:19 | 50.11200 | 14.26680 | 1165 ft | 17 kts | 38° |
| 2026-05-06 07:19 | 50.11246 | 14.26810 | 1168 ft | 12 kts | 62° |
| 2026-05-06 07:19 | 50.11255 | 14.26841 | 1168 ft | 12 kts | 64° |
| 2026-05-06 07:19 | 50.11282 | 14.26928 | 1169 ft | 12 kts | 65° |
| 2026-05-06 07:20 | 50.11317 | 14.27052 | 1170 ft | 12 kts | 65° |
| 2026-05-06 07:20 | 50.11354 | 14.27173 | 1171 ft | 12 kts | 62° |
| 2026-05-06 07:20 | 50.11377 | 14.27245 | 1172 ft | 12 kts | 64° |
| 2026-05-06 07:20 | 50.11385 | 14.27270 | 1172 ft | 12 kts | 65° |
| 2026-05-06 07:21 | 50.11417 | 14.27376 | 1172 ft | 9 kts | 63° |
| 2026-05-06 07:21 | 50.11449 | 14.27422 | 1171 ft | 10 kts | 9° |
| 2026-05-06 07:21 | 50.11550 | 14.27326 | 1166 ft | 15 kts | 308° |
| 2026-05-06 07:21 | 50.11564 | 14.27233 | 1164 ft | 11 kts | 252° |
| 2026-05-06 07:22 | 50.11466 | 14.26909 | 1162 ft | 63 kts | 244° |
| 2026-05-06 07:22 | 50.11189 | 14.25983 | 1155 ft | 124 kts | 245° |
| 2026-05-06 07:22 | 50.10918 | 14.25058 | 1163 ft | 156 kts | 244° |
| 2026-05-06 07:22 | 50.10405 | 14.23380 | 1314 ft | 180 kts | 243° |
| 2026-05-06 07:23 | 50.09455 | 14.21334 | 2087 ft | 187 kts | 206° |
| 2026-05-06 07:23 | 50.08163 | 14.21129 | 2680 ft | 202 kts | 165° |
| 2026-05-06 07:23 | 50.06850 | 14.22285 | 3132 ft | 231 kts | 150° |
| 2026-05-06 07:23 | 50.05448 | 14.23516 | 3961 ft | 235 kts | 164° |
| 2026-05-06 07:24 | 50.03877 | 14.24253 | 4730 ft | 245 kts | 169° |
| 2026-05-06 07:24 | 50.02175 | 14.24899 | 5292 ft | 264 kts | 171° |
| 2026-05-06 07:24 | 50.00342 | 14.25523 | 6045 ft | 276 kts | 171° |
| 2026-05-06 07:24 | 49.99410 | 14.25824 | 6486 ft | 278 kts | 172° |
| 2026-05-06 07:25 | 49.98568 | 14.26107 | 6911 ft | 280 kts | 167° |
| 2026-05-06 07:26 | 49.97695 | 14.26657 | 7360 ft | 286 kts | 152° |
| 2026-05-06 07:27 | 49.97448 | 14.26903 | 7499 ft | 288 kts | 147° |
| 2026-05-06 07:27 | 49.96048 | 14.29081 | 8465 ft | 291 kts | 134° |
| 2026-05-06 07:28 | 49.94730 | 14.31424 | 9400 ft | 291 kts | 135° |
| 2026-05-06 07:28 | 49.93409 | 14.33769 | 10256 ft | 294 kts | 135° |
| 2026-05-06 07:28 | 49.90665 | 14.38631 | 11594 ft | 311 kts | 135° |
| 2026-05-06 07:29 | 49.89210 | 14.41207 | 12217 ft | 321 kts | 135° |
| 2026-05-06 07:29 | 49.87731 | 14.43823 | 12941 ft | 327 kts | 135° |
| 2026-05-06 07:29 | 49.86239 | 14.46462 | 13739 ft | 330 kts | 135° |
| 2026-05-06 07:29 | 49.84725 | 14.49134 | 14527 ft | 333 kts | 135° |
| 2026-05-06 07:30 | 49.83202 | 14.51821 | 15260 ft | 337 kts | 135° |
| 2026-05-06 07:30 | 49.81659 | 14.54537 | 15970 ft | 341 kts | 136° |
| 2026-05-06 07:30 | 49.80079 | 14.57318 | 16632 ft | 340 kts | 136° |
| 2026-05-06 07:30 | 49.78513 | 14.60069 | 16775 ft | 352 kts | 135° |
| 2026-05-06 07:31 | 49.76844 | 14.62995 | 16818 ft | 373 kts | 135° |
| 2026-05-06 07:31 | 49.75124 | 14.66017 | 16803 ft | 374 kts | 136° |
| 2026-05-06 07:31 | 49.73406 | 14.69028 | 16801 ft | 374 kts | 136° |
| 2026-05-06 07:31 | 49.71646 | 14.71922 | 16783 ft | 369 kts | 146° |
| 2026-05-06 07:32 | 49.70235 | 14.73340 | 16808 ft | 363 kts | 155° |
| 2026-05-06 07:32 | 49.67284 | 14.75834 | 16798 ft | 364 kts | 156° |
| 2026-05-06 07:32 | 49.66655 | 14.76359 | 16800 ft | 363 kts | 156° |